Amherst, Texas
Current Conditions -  °F | °C
As of 8:55 PM on Thursday 27 Nov 2014 (Local Time) from KPVW Reporting Station
Clear Clear  
Wind Chill: 37°   Ceiling: Unl
Heat Index: 41°   Visibility: 10mi
Dew Point: 31°   Wind: 6mph
Humidity: 67%   Direction: 210°SSW
Pressure: 30.25"   Gusts: NA
Location:  34.01°N, 102.42°W
Report Text: KPVW 280255Z AUTO 21005KT 10SM CLR 05/M01 A3025 RMK AO2 T00501006
Loading
Personal Weather Stations






























Interactive Weather Map New forecast layout! Learn more

10-Day Weather Forecast

Advertisements
Track Severe Weather on mobile